Time;durP1;ratioP1;P1;durP2;ratioP2;P2;SDS_P1;SDS_P2;PMS_P1;PMS_P2;Temp;Humidity;BMP_temperature;BMP_pressure;BME280_temperature;BME280_humidity;BME280_pressure;Samples;Min_cycle;Max_cycle;Signal;HPM_P1;HPM_P2
2023/02/07 00:00:05;;;;;;;10.52;5.40;;;;;;;-2.94;63.43;101236.75;5086043;28;20108;-56
2023/02/07 00:02:42;;;;;;;9.77;5.53;;;;;;;-2.96;64.05;101236.69;5077863;28;20051;-53
2023/02/07 00:05:08;;;;;;;11.77;6.38;;;;;;;-2.88;63.80;101232.81;5079101;28;20507;-50
2023/02/07 00:07:34;;;;;;;14.55;5.60;;;;;;;-2.67;63.82;101235.44;5091702;28;20044;-55
2023/02/07 00:10:00;;;;;;;10.20;5.43;;;;;;;-2.44;63.33;101237.28;5079233;28;20052;-49
2023/02/07 00:12:26;;;;;;;8.48;5.10;;;;;;;-2.29;63.07;101249.78;5082761;28;20145;-54
2023/02/07 00:14:52;;;;;;;11.20;5.53;;;;;;;-2.43;63.02;101244.13;5081346;28;20051;-52
2023/02/07 00:17:18;;;;;;;11.60;5.65;;;;;;;-2.34;62.73;101246.16;5086999;28;20056;-56
2023/02/07 00:19:43;;;;;;;10.52;5.78;;;;;;;-2.33;62.94;101246.25;5091613;28;20078;-52
2023/02/07 00:22:09;;;;;;;12.07;5.38;;;;;;;-2.18;62.51;101251.97;5091748;28;20040;-52
2023/02/07 00:24:35;;;;;;;11.48;6.25;;;;;;;-2.15;62.36;101241.06;5082794;28;20487;-52
2023/02/07 00:27:01;;;;;;;10.85;6.07;;;;;;;-2.32;62.44;101248.00;5101517;28;20043;-54
2023/02/07 00:29:27;;;;;;;9.95;5.18;;;;;;;-2.51;62.40;101221.69;5090386;28;20036;-54
2023/02/07 00:31:53;;;;;;;5.32;3.20;;;;;;;-2.46;62.78;101251.59;5081877;28;20372;-51
2023/02/07 00:34:19;;;;;;;6.18;3.85;;;;;;;-2.73;62.36;101260.63;5069810;28;20119;-51
2023/02/07 00:36:45;;;;;;;9.73;5.53;;;;;;;-3.10;63.19;101227.56;5066534;28;20044;-53
2023/02/07 00:39:13;;;;;;;10.05;5.15;;;;;;;-2.81;63.25;101254.28;5085490;28;20530;-53
2023/02/07 00:41:39;;;;;;;7.85;4.85;;;;;;;-2.64;62.87;101256.78;5065172;28;20647;-54
2023/02/07 00:44:09;;;;;;;11.00;5.68;;;;;;;-2.67;62.92;101258.34;5054072;28;20064;-55
2023/02/07 00:46:35;;;;;;;11.95;6.57;;;;;;;-2.59;62.89;101262.97;5071708;28;20037;-53
2023/02/07 00:49:01;;;;;;;11.07;5.80;;;;;;;-2.64;62.96;101266.09;5076623;28;20559;-56
2023/02/07 00:51:27;;;;;;;12.85;6.80;;;;;;;-2.70;63.03;101264.16;5088850;28;20045;-55
2023/02/07 00:53:54;;;;;;;8.48;4.75;;;;;;;-2.80;63.11;101267.09;5091684;28;20043;-54
2023/02/07 00:56:22;;;;;;;10.02;5.35;;;;;;;-2.97;63.54;101273.09;5089685;28;20048;-54
2023/02/07 00:58:49;;;;;;;10.13;6.07;;;;;;;-3.01;63.46;101268.69;5074365;28;20130;-55
2023/02/07 01:01:15;;;;;;;11.05;6.38;;;;;;;-2.92;63.63;101274.19;5087545;28;20135;-53
2023/02/07 01:03:41;;;;;;;9.23;5.63;;;;;;;-2.83;63.52;101273.75;5080451;28;20067;-57
2023/02/07 01:06:08;;;;;;;10.75;5.90;;;;;;;-2.69;63.25;101276.09;5090318;28;20071;-56
2023/02/07 01:08:34;;;;;;;11.15;6.28;;;;;;;-2.58;63.02;101268.91;5074368;28;20037;-53
2023/02/07 01:11:18;;;;;;;9.75;5.95;;;;;;;-2.82;62.94;101244.91;5095471;28;20324;-50
2023/02/07 01:13:44;;;;;;;8.48;5.45;;;;;;;-2.90;63.35;101251.34;5094675;28;20082;-54
2023/02/07 01:16:24;;;;;;;10.77;5.85;;;;;;;-2.77;63.40;101276.53;5079658;28;20043;-54
2023/02/07 01:18:50;;;;;;;11.82;5.85;;;;;;;-2.89;63.39;101274.34;5078077;28;20035;-54
2023/02/07 01:21:22;;;;;;;11.23;5.45;;;;;;;-2.95;63.38;101274.06;5109183;28;20057;-53
2023/02/07 01:23:48;;;;;;;8.05;4.97;;;;;;;-2.91;63.22;101272.50;5094475;28;21294;-52
2023/02/07 01:26:14;;;;;;;9.85;6.10;;;;;;;-3.01;63.56;101284.81;5092024;28;20032;-51
2023/02/07 01:28:40;;;;;;;10.52;5.90;;;;;;;-2.88;63.40;101286.25;5100210;28;20036;-54
2023/02/07 01:31:08;;;;;;;11.70;5.93;;;;;;;-2.63;63.06;101284.00;5082380;28;20038;-51
2023/02/07 01:33:35;;;;;;;9.90;5.47;;;;;;;-2.45;62.63;101285.59;5093629;28;20044;-50
2023/02/07 01:36:06;;;;;;;12.18;6.40;;;;;;;-2.61;62.76;101286.59;5074877;28;20423;-53
2023/02/07 01:38:32;;;;;;;8.85;5.70;;;;;;;-2.42;62.60;101290.81;5098311;28;20040;-51
2023/02/07 01:40:58;;;;;;;10.38;6.05;;;;;;;-2.26;62.43;101289.00;5084577;28;20047;-50
2023/02/07 01:43:25;;;;;;;9.15;5.38;;;;;;;-2.15;61.94;101286.91;5078668;28;20096;-54
2023/02/07 01:45:51;;;;;;;10.15;5.70;;;;;;;-2.05;61.89;101290.72;5106007;28;20035;-51
2023/02/07 01:48:23;;;;;;;10.38;6.10;;;;;;;-1.97;61.71;101302.09;5095734;28;20063;-50
2023/02/07 01:50:51;;;;;;;10.75;6.07;;;;;;;-2.14;61.58;101278.44;5077289;28;20068;-53
2023/02/07 01:53:19;;;;;;;11.55;6.25;;;;;;;-2.05;61.59;101298.38;5106999;27;20074;-56
2023/02/07 01:55:47;;;;;;;13.90;6.15;;;;;;;-2.09;61.69;101299.06;5094699;28;20498;-55
2023/02/07 01:58:13;;;;;;;10.13;6.05;;;;;;;-1.99;61.63;101303.72;5067769;28;20040;-54
2023/02/07 02:00:39;;;;;;;11.20;5.55;;;;;;;-2.11;61.44;101314.25;5100011;27;20572;-52
2023/02/07 02:03:05;;;;;;;8.32;5.15;;;;;;;-2.15;61.57;101308.16;5105015;28;20048;-52
2023/02/07 02:05:33;;;;;;;9.60;5.18;;;;;;;-2.12;61.50;101302.31;5083178;28;20047;-57
2023/02/07 02:07:59;;;;;;;9.05;5.30;;;;;;;-2.24;61.48;101272.09;5076380;28;20047;-50
2023/02/07 02:10:48;;;;;;;9.07;5.03;;;;;;;-2.05;61.46;101314.53;5097132;28;20594;-52
2023/02/07 02:13:20;;;;;;;;;;;;;;;-1.96;61.37;101320.00;5085554;28;20153;-54
2023/02/07 02:16:07;;;;;;;9.45;4.70;;;;;;;-1.95;61.04;101319.19;5089348;28;19919;-56
2023/02/07 02:18:42;;;;;;;9.60;5.07;;;;;;;-1.89;60.88;101322.00;5069856;28;20108;-52
2023/02/07 02:21:29;;;;;;;7.68;4.07;;;;;;;-2.14;61.08;101321.75;5094043;28;20074;-54
2023/02/07 02:24:17;;;;;;;11.75;5.70;;;;;;;-2.40;61.61;101319.75;5086308;28;20028;-54
2023/02/07 02:27:20;;;;;;;11.32;5.72;;;;;;;-2.51;61.90;101328.63;5068563;28;20068;-56
2023/02/07 02:30:04;;;;;;;9.95;5.15;;;;;;;-2.66;62.18;101332.22;5090965;28;20408;-53
2023/02/07 02:32:48;;;;;;;8.30;5.60;;;;;;;-2.69;62.43;101329.53;5081662;28;20467;-56
2023/02/07 02:35:38;;;;;;;7.85;4.68;;;;;;;-2.67;62.32;101333.00;5082024;28;20040;-56
2023/02/07 02:38:37;;;;;;;10.27;5.50;;;;;;;-2.73;62.29;101339.53;5089958;28;20473;-52
2023/02/07 02:41:36;;;;;;;10.10;5.60;;;;;;;-2.80;62.36;101312.03;5077351;28;20058;-52
2023/02/07 02:44:07;;;;;;;11.68;6.03;;;;;;;-2.60;62.16;101341.78;5012240;28;20539;-54
2023/02/07 02:46:36;;;;;;;9.85;5.18;;;;;;;-2.61;62.28;101320.56;5072640;28;20082;-55
2023/02/07 02:49:05;;;;;;;11.77;5.55;;;;;;;-2.43;61.96;101320.50;5073519;28;20039;-56
2023/02/07 02:51:31;;;;;;;10.20;5.30;;;;;;;-2.47;61.66;101303.38;5095480;28;20465;-50
2023/02/07 02:53:59;;;;;;;8.35;4.70;;;;;;;-2.09;61.25;101350.84;5090828;28;20280;-55
2023/02/07 02:57:37;;;;;;;8.30;4.63;;;;;;;-1.99;61.12;101354.69;5085458;28;20518;-54
2023/02/07 03:00:30;;;;;;;7.95;4.53;;;;;;;-1.92;61.21;101365.19;5016441;28;20098;-52
2023/02/07 03:03:28;;;;;;;8.23;4.35;;;;;;;-1.95;60.86;101369.31;5082208;28;20036;-53
2023/02/07 03:05:57;;;;;;;7.78;4.43;;;;;;;-2.25;61.09;101367.16;5062398;28;20076;-55
2023/02/07 03:08:42;;;;;;;10.77;5.82;;;;;;;-2.29;61.23;101366.94;5095960;28;20039;-57
2023/02/07 03:11:16;;;;;;;9.45;4.85;;;;;;;-2.25;61.26;101382.44;5090980;28;20082;-50
2023/02/07 03:14:10;;;;;;;10.20;5.32;;;;;;;-2.21;61.31;101383.47;5086249;28;20085;-53
2023/02/07 03:16:39;;;;;;;7.97;4.65;;;;;;;-2.31;61.21;101388.94;5096493;28;20051;-51
2023/02/07 03:19:14;;;;;;;9.73;4.70;;;;;;;-2.20;61.13;101393.69;5080082;28;20043;-55
2023/02/07 03:21:42;;;;;;;9.00;5.07;;;;;;;-2.27;61.13;101403.56;5097346;28;20157;-56
2023/02/07 03:24:13;;;;;;;8.02;4.90;;;;;;;-2.26;61.27;101408.72;5096270;28;20120;-54
2023/02/07 03:26:41;;;;;;;10.15;5.13;;;;;;;-2.43;61.13;101413.84;5072184;28;20094;-55
2023/02/07 03:29:08;;;;;;;7.53;4.47;;;;;;;-2.57;61.27;101418.34;5084195;28;20046;-54
2023/02/07 03:31:36;;;;;;;10.43;4.82;;;;;;;-2.59;61.63;101414.84;5082134;28;20586;-55
2023/02/07 03:34:07;;;;;;;8.50;3.97;;;;;;;-2.53;61.40;101422.75;5072445;28;20628;-59
2023/02/07 03:36:45;;;;;;;13.40;4.40;;;;;;;-2.70;61.50;101424.53;5100117;28;20036;-53
2023/02/07 03:39:11;;;;;;;7.85;4.43;;;;;;;-2.84;61.66;101433.19;5099747;28;20502;-55
2023/02/07 03:41:43;;;;;;;9.07;4.57;;;;;;;-2.69;61.55;101443.22;5101328;28;20124;-57
2023/02/07 03:44:10;;;;;;;9.50;5.28;;;;;;;-2.52;61.33;101432.16;5068900;28;20055;-55
2023/02/07 03:46:36;;;;;;;8.13;4.82;;;;;;;-2.27;60.83;101440.09;5051353;28;20043;-50
2023/02/07 03:49:03;;;;;;;7.28;3.85;;;;;;;-2.24;60.85;101440.22;5101039;28;20572;-50
2023/02/07 03:51:29;;;;;;;7.38;4.03;;;;;;;-2.36;60.86;101441.38;5078205;28;20574;-55
2023/02/07 03:53:55;;;;;;;7.03;3.55;;;;;;;-2.41;60.97;101446.25;5099527;28;20044;-51
2023/02/07 03:56:20;;;;;;;9.32;4.25;;;;;;;-2.55;60.99;101457.44;5092651;28;20047;-53
2023/02/07 03:58:46;;;;;;;7.10;4.10;;;;;;;-2.58;61.07;101454.78;5087531;28;20040;-51
2023/02/07 04:01:12;;;;;;;7.80;4.25;;;;;;;-2.49;61.32;101452.66;5081545;28;20095;-50
2023/02/07 04:03:38;;;;;;;11.73;4.75;;;;;;;-2.54;60.82;101466.84;5091068;28;20419;-52
2023/02/07 04:06:04;;;;;;;6.45;3.70;;;;;;;-2.64;60.72;101473.19;5088484;28;20423;-57
2023/02/07 04:08:31;;;;;;;6.85;3.08;;;;;;;-2.65;60.81;101478.19;5087534;28;20059;-53
2023/02/07 04:11:01;;;;;;;7.40;3.78;;;;;;;-2.78;60.97;101479.31;5097342;28;20056;-51
2023/02/07 04:13:28;;;;;;;9.02;5.03;;;;;;;-2.69;61.06;101481.41;5078387;28;20146;-56
2023/02/07 04:15:54;;;;;;;7.80;3.90;;;;;;;-2.59;61.09;101483.56;5093668;28;20063;-57
2023/02/07 04:18:20;;;;;;;6.70;4.10;;;;;;;-2.56;60.97;101492.22;5094963;28;20162;-56
2023/02/07 04:20:47;;;;;;;9.10;4.13;;;;;;;-2.73;60.89;101482.06;5075963;28;20036;-52
2023/02/07 04:23:13;;;;;;;6.95;3.90;;;;;;;-2.89;61.14;101490.63;5106372;28;21633;-52
2023/02/07 04:25:39;;;;;;;8.65;4.80;;;;;;;-3.00;61.54;101499.41;5103223;28;20044;-53
2023/02/07 04:28:06;;;;;;;9.25;4.85;;;;;;;-2.84;61.61;101494.28;5091839;28;20449;-54
2023/02/07 04:30:32;;;;;;;11.23;4.82;;;;;;;-2.61;61.15;101498.78;5087587;28;20040;-55
2023/02/07 04:32:58;;;;;;;8.38;4.55;;;;;;;-2.46;60.96;101520.69;5096952;28;20567;-52
2023/02/07 04:35:24;;;;;;;9.98;4.50;;;;;;;-2.51;60.79;101517.91;5094345;28;20068;-54
2023/02/07 04:37:50;;;;;;;9.32;4.50;;;;;;;-2.74;60.95;101519.38;5105099;28;20035;-59
2023/02/07 04:40:16;;;;;;;9.93;4.57;;;;;;;-2.84;61.25;101523.94;5098747;28;20084;-59
2023/02/07 04:42:42;;;;;;;8.32;4.68;;;;;;;-2.76;61.15;101509.91;5100030;28;20420;-60
2023/02/07 04:45:08;;;;;;;9.63;5.45;;;;;;;-2.57;60.93;101522.72;5088746;28;20032;-61
2023/02/07 04:47:34;;;;;;;8.73;4.78;;;;;;;-2.53;60.79;101527.16;5090071;28;20593;-63
2023/02/07 04:50:00;;;;;;;9.15;4.40;;;;;;;-2.47;60.29;101535.09;5075707;28;20134;-55
2023/02/07 04:52:26;;;;;;;12.30;4.97;;;;;;;-2.58;60.54;101537.13;5082984;28;20842;-49
2023/02/07 04:54:52;;;;;;;10.18;5.03;;;;;;;-2.53;60.75;101536.47;5088114;28;20040;-56
2023/02/07 04:57:18;;;;;;;7.88;3.97;;;;;;;-2.41;60.67;101535.38;5088914;28;20044;-57
2023/02/07 04:59:43;;;;;;;9.38;4.60;;;;;;;-2.59;60.50;101537.03;5086562;28;20097;-57
2023/02/07 05:02:09;;;;;;;11.20;4.90;;;;;;;-2.65;60.72;101550.34;5088879;28;20046;-57
2023/02/07 05:04:35;;;;;;;9.55;5.13;;;;;;;-2.58;60.64;101541.34;5070653;28;20078;-54
2023/02/07 05:07:01;;;;;;;8.43;5.18;;;;;;;-2.43;60.53;101554.81;5089343;28;20071;-54
2023/02/07 05:09:27;;;;;;;9.82;5.00;;;;;;;-2.50;60.24;101539.16;5091032;28;20035;-56
2023/02/07 05:11:53;;;;;;;10.65;5.30;;;;;;;-2.38;60.07;101567.75;5064316;28;20056;-54
2023/02/07 05:14:19;;;;;;;11.52;6.30;;;;;;;-2.36;60.14;101573.81;5091078;28;20051;-58
2023/02/07 05:16:45;;;;;;;10.48;4.65;;;;;;;-2.27;60.22;101577.66;5090443;28;20139;-57
2023/02/07 05:19:11;;;;;;;7.50;4.38;;;;;;;-2.35;60.45;101571.31;5088963;28;20936;-54
2023/02/07 05:21:37;;;;;;;7.10;4.50;;;;;;;-2.48;60.35;101568.13;5055760;28;20125;-55
2023/02/07 05:24:03;;;;;;;10.50;5.13;;;;;;;-2.75;60.88;101540.53;5089438;28;20082;-57
2023/02/07 05:26:29;;;;;;;9.05;4.05;;;;;;;-2.77;60.35;101541.22;5090690;28;20055;-56
2023/02/07 05:28:55;;;;;;;10.50;5.35;;;;;;;-2.70;60.56;101573.84;5089062;28;20523;-49
2023/02/07 05:33:02;;;;;;;8.73;4.22;;;;;;;-2.75;60.68;101576.16;5090904;28;20040;-52
2023/02/07 05:34:07;;;;;;;8.27;5.20;;;;;;;-2.85;60.97;101588.34;5089207;28;20043;-53
2023/02/07 05:36:32;;;;;;;9.98;5.40;;;;;;;-2.95;60.99;101594.66;5091010;28;20086;-50
2023/02/07 05:38:58;;;;;;;10.10;5.22;;;;;;;-3.00;61.09;101596.97;5091160;28;20047;-55
2023/02/07 05:41:24;;;;;;;9.15;5.85;;;;;;;-3.01;61.03;101601.97;5089955;28;20036;-56
2023/02/07 05:43:50;;;;;;;9.77;4.20;;;;;;;-2.97;61.47;101603.00;5090711;28;20143;-54
2023/02/07 05:46:16;;;;;;;12.25;5.60;;;;;;;-2.96;61.23;101597.13;5072783;28;20495;-57
2023/02/07 05:48:41;;;;;;;10.85;5.25;;;;;;;-2.74;61.16;101605.03;5089762;28;20051;-58
2023/02/07 05:51:07;;;;;;;11.57;5.07;;;;;;;-2.56;60.92;101613.56;5087386;28;20070;-57
2023/02/07 05:53:33;;;;;;;9.98;3.70;;;;;;;-2.64;60.52;101617.41;5070059;28;20054;-51
2023/02/07 05:55:59;;;;;;;8.43;4.88;;;;;;;-2.87;61.04;101611.16;5068901;28;20105;-52
2023/02/07 05:58:25;;;;;;;9.20;4.32;;;;;;;-2.87;60.96;101617.94;5071399;28;20044;-54
2023/02/07 06:00:51;;;;;;;7.88;4.85;;;;;;;-2.85;60.60;101626.53;5089368;28;20036;-50
2023/02/07 06:03:17;;;;;;;9.40;4.90;;;;;;;-2.85;61.10;101619.75;5090574;28;20046;-53
2023/02/07 06:05:42;;;;;;;8.25;5.30;;;;;;;-2.81;60.41;101595.34;5090744;28;20039;-54
2023/02/07 06:08:08;;;;;;;9.23;5.28;;;;;;;-2.53;60.47;101629.00;5073182;28;20605;-56
2023/02/07 06:10:34;;;;;;;7.88;4.35;;;;;;;-2.52;60.26;101640.06;5070120;28;20136;-53
2023/02/07 06:13:00;;;;;;;7.20;4.18;;;;;;;-2.58;60.42;101635.56;5070144;28;20204;-53
2023/02/07 06:15:26;;;;;;;11.63;5.90;;;;;;;-2.59;60.22;101634.66;5068604;28;20048;-55
2023/02/07 06:17:52;;;;;;;10.90;5.45;;;;;;;-2.61;60.19;101636.25;5068730;28;20036;-55
2023/02/07 06:20:18;;;;;;;8.50;4.80;;;;;;;-2.71;60.38;101633.19;5068720;28;20101;-53
2023/02/07 06:22:44;;;;;;;8.77;5.63;;;;;;;-2.66;60.52;101642.78;5069878;28;20064;-52
2023/02/07 06:25:10;;;;;;;8.73;4.07;;;;;;;-2.75;60.09;101644.88;5068405;28;20048;-56
2023/02/07 06:27:40;;;;;;;10.63;6.07;;;;;;;-3.14;60.56;101615.72;5069603;28;20098;-55
2023/02/07 06:30:07;;;;;;;10.38;5.70;;;;;;;-2.96;60.64;101651.44;5069664;28;20036;-54
2023/02/07 06:32:33;;;;;;;10.07;5.43;;;;;;;-3.16;60.49;101603.75;5051907;28;20039;-55
2023/02/07 06:34:59;;;;;;;9.68;4.53;;;;;;;-2.84;60.50;101659.69;5051780;28;20431;-53
2023/02/07 06:37:25;;;;;;;9.68;5.07;;;;;;;-2.89;60.57;101653.50;5068370;28;20067;-54
2023/02/07 06:39:51;;;;;;;10.60;5.72;;;;;;;-2.80;60.42;101655.63;5051683;28;20882;-55
2023/02/07 06:42:17;;;;;;;8.70;5.35;;;;;;;-2.82;60.00;101637.72;5068300;28;20040;-57
2023/02/07 06:44:43;;;;;;;12.13;5.57;;;;;;;-2.63;60.10;101665.00;5068165;28;20059;-50
2023/02/07 06:47:09;;;;;;;9.90;4.45;;;;;;;-2.60;60.02;101676.19;5068129;28;20504;-52
2023/02/07 06:49:34;;;;;;;8.20;4.28;;;;;;;-2.78;60.12;101685.47;5069221;28;20040;-50
2023/02/07 06:52:01;;;;;;;8.10;4.80;;;;;;;-3.10;60.73;101660.91;5067829;28;20102;-52
2023/02/07 06:54:27;;;;;;;12.15;5.57;;;;;;;-3.03;60.81;101688.41;5067734;28;20047;-51
2023/02/07 06:56:52;;;;;;;10.20;4.97;;;;;;;-3.10;60.86;101691.44;5068207;28;20127;-50
2023/02/07 06:59:18;;;;;;;11.25;5.25;;;;;;;-3.07;60.83;101698.34;5078939;28;20519;-52
2023/02/07 07:01:44;;;;;;;11.85;5.78;;;;;;;-3.03;61.13;101701.13;5089544;28;20048;-57
2023/02/07 07:04:10;;;;;;;8.27;4.60;;;;;;;-2.93;60.90;101694.00;5088114;28;20491;-51
2023/02/07 07:06:36;;;;;;;9.35;4.80;;;;;;;-2.91;60.88;101702.56;5085442;28;20036;-52
2023/02/07 07:09:03;;;;;;;8.48;3.03;;;;;;;-2.95;60.83;101701.53;5067896;28;20064;-52
2023/02/07 07:11:28;;;;;;;8.98;4.68;;;;;;;-3.13;61.23;101710.72;5068987;28;20051;-50
2023/02/07 07:13:54;;;;;;;9.40;4.82;;;;;;;-3.16;61.32;101714.00;5067794;28;20044;-53
2023/02/07 07:16:20;;;;;;;10.68;5.95;;;;;;;-3.09;61.21;101705.03;5068866;28;20416;-54
2023/02/07 07:18:46;;;;;;;9.85;5.43;;;;;;;-3.02;60.92;101713.06;5068853;28;20046;-53
2023/02/07 07:21:12;;;;;;;8.52;4.78;;;;;;;-3.05;60.97;101712.91;5050661;28;20531;-55
2023/02/07 07:23:38;;;;;;;11.25;5.18;;;;;;;-3.11;60.98;101732.94;5068594;28;20046;-54
2023/02/07 07:26:04;;;;;;;7.78;4.65;;;;;;;-3.15;61.23;101733.56;5068718;28;20085;-55
2023/02/07 07:28:30;;;;;;;7.72;4.18;;;;;;;-3.06;61.08;101731.50;5067370;28;20062;-53
2023/02/07 07:31:02;;;;;;;6.97;3.95;;;;;;;-3.16;61.01;101739.44;5067244;28;20523;-54
2023/02/07 07:33:28;;;;;;;8.35;4.47;;;;;;;-3.24;61.12;101730.50;5067526;28;20517;-52
2023/02/07 07:35:57;;;;;;;7.13;4.47;;;;;;;-3.24;61.65;101740.69;5067507;28;20708;-56
2023/02/07 07:38:23;;;;;;;8.90;4.60;;;;;;;-3.12;61.08;101732.84;5068550;28;20036;-49
2023/02/07 07:40:49;;;;;;;5.05;3.08;;;;;;;-3.14;61.13;101742.06;5067134;28;20036;-51
2023/02/07 07:43:15;;;;;;;10.00;4.68;;;;;;;-3.43;61.31;101704.88;5068545;28;20151;-53
2023/02/07 07:45:49;;;;;;;8.75;3.72;;;;;;;-3.26;60.89;101734.66;5068699;28;20028;-52
2023/02/07 07:48:15;;;;;;;9.10;4.82;;;;;;;-3.18;61.40;101740.13;5067113;28;20051;-54
2023/02/07 07:50:41;;;;;;;8.98;4.75;;;;;;;-3.21;61.09;101738.31;5068474;28;20436;-49
2023/02/07 07:53:07;;;;;;;8.75;4.88;;;;;;;-3.20;60.98;101729.91;5067171;28;20044;-54
2023/02/07 07:55:32;;;;;;;9.88;4.47;;;;;;;-3.19;61.02;101733.31;5068089;28;20110;-49
2023/02/07 07:57:58;;;;;;;8.57;4.18;;;;;;;-3.15;60.82;101733.56;5068586;28;20044;-51
2023/02/07 08:00:24;;;;;;;10.35;4.82;;;;;;;-3.08;60.97;101737.28;5087093;28;20047;-55
2023/02/07 08:02:50;;;;;;;7.78;4.50;;;;;;;-3.07;60.56;101737.38;5087058;28;20742;-55
2023/02/07 08:05:16;;;;;;;8.35;4.68;;;;;;;-3.31;61.12;101707.22;5088351;28;20040;-48
2023/02/07 08:07:42;;;;;;;7.57;4.03;;;;;;;-3.01;61.17;101741.91;5076803;28;20043;-51
2023/02/07 08:10:08;;;;;;;8.40;3.92;;;;;;;-3.25;60.53;101699.94;5068183;28;20056;-57
2023/02/07 08:12:34;;;;;;;8.52;4.63;;;;;;;-2.86;60.52;101757.13;5066624;28;20143;-52
2023/02/07 08:15:00;;;;;;;5.78;3.47;;;;;;;-2.72;60.35;101774.84;5068125;28;20036;-53
2023/02/07 08:17:25;;;;;;;8.48;4.25;;;;;;;-2.77;59.99;101770.31;5066175;28;20419;-54
2023/02/07 08:19:51;;;;;;;9.02;4.70;;;;;;;-2.84;60.41;101774.22;5067552;28;20637;-50
2023/02/07 08:22:17;;;;;;;5.55;3.45;;;;;;;-2.81;60.41;101774.38;5066500;28;20036;-56
2023/02/07 08:24:43;;;;;;;5.30;2.97;;;;;;;-2.94;60.26;101774.53;5066092;28;20058;-49
2023/02/07 08:27:09;;;;;;;12.70;4.07;;;;;;;-3.11;60.14;101753.28;5067837;28;20071;-54
2023/02/07 08:29:36;;;;;;;10.45;4.53;;;;;;;-3.12;60.40;101733.72;5049857;28;20041;-50
2023/02/07 08:32:02;;;;;;;7.95;4.30;;;;;;;-2.87;60.15;101765.53;5050044;28;20150;-52
2023/02/07 08:34:30;;;;;;;9.13;4.38;;;;;;;-2.92;60.39;101761.88;5068080;28;20128;-53
2023/02/07 08:36:56;;;;;;;8.18;4.60;;;;;;;-2.91;60.30;101764.50;5067847;28;20044;-51
2023/02/07 08:39:22;;;;;;;9.80;4.30;;;;;;;-2.73;60.43;101770.59;5068131;28;20426;-52
2023/02/07 08:41:48;;;;;;;7.93;4.85;;;;;;;-2.53;59.71;101765.63;5066684;28;20044;-53
2023/02/07 08:44:14;;;;;;;7.00;3.15;;;;;;;-2.62;59.54;101771.16;5068020;28;20043;-55
2023/02/07 08:46:39;;;;;;;8.70;5.00;;;;;;;-2.56;59.73;101761.25;5067927;28;20040;-54
2023/02/07 08:49:05;;;;;;;7.57;3.60;;;;;;;-2.60;59.43;101767.88;5049690;28;20036;-52
2023/02/07 08:51:31;;;;;;;8.93;3.90;;;;;;;-2.72;59.61;101767.22;5049847;28;20080;-50
2023/02/07 08:53:57;;;;;;;6.05;2.75;;;;;;;-2.53;59.36;101769.06;5067896;28;20044;-48
2023/02/07 08:56:23;;;;;;;9.57;4.35;;;;;;;-2.59;59.65;101772.16;5083317;28;20063;-53
2023/02/07 08:58:49;;;;;;;8.90;4.57;;;;;;;-2.65;59.55;101771.84;5072656;28;20408;-52
2023/02/07 09:01:15;;;;;;;8.48;3.53;;;;;;;-2.44;59.37;101753.38;5086888;28;20047;-49
2023/02/07 09:03:41;;;;;;;11.30;4.53;;;;;;;-2.89;58.63;101703.53;5070097;28;20500;-51
2023/02/07 09:06:07;;;;;;;7.15;4.00;;;;;;;-2.66;59.12;101765.00;5086753;28;20108;-51
2023/02/07 09:08:33;;;;;;;5.85;3.70;;;;;;;-2.51;59.24;101772.53;5069655;28;20036;-50
2023/02/07 09:10:59;;;;;;;7.10;3.33;;;;;;;-2.50;58.95;101769.22;5071168;28;20056;-55
2023/02/07 09:13:25;;;;;;;9.48;4.15;;;;;;;-2.40;58.57;101775.63;5071735;28;20048;-53
2023/02/07 09:15:55;;;;;;;8.75;4.53;;;;;;;-2.40;58.83;101773.09;5071333;28;20549;-54
2023/02/07 09:18:21;;;;;;;10.05;4.30;;;;;;;-2.34;58.65;101775.97;5070110;28;20063;-59
2023/02/07 09:20:47;;;;;;;5.53;3.22;;;;;;;-2.56;58.53;101773.97;5071216;28;20036;-52
2023/02/07 09:23:16;;;;;;;9.40;4.90;;;;;;;-2.78;59.16;101746.56;5071222;28;20075;-52
2023/02/07 09:25:42;;;;;;;6.82;3.67;;;;;;;-2.64;58.80;101772.72;5069546;28;20033;-52
2023/02/07 09:28:09;;;;;;;9.38;4.38;;;;;;;-2.82;58.99;101752.25;5070656;28;20500;-51
2023/02/07 09:30:34;;;;;;;10.68;4.80;;;;;;;-2.52;58.74;101786.09;5069636;28;20732;-52
2023/02/07 09:33:01;;;;;;;8.38;4.20;;;;;;;-2.48;58.69;101782.91;5069804;28;20032;-53
2023/02/07 09:35:27;;;;;;;9.27;4.22;;;;;;;-2.45;58.79;101788.16;5069495;28;20131;-49
2023/02/07 09:37:54;;;;;;;6.38;3.40;;;;;;;-2.47;58.46;101793.97;5069505;28;20534;-51
2023/02/07 09:40:20;;;;;;;7.80;4.13;;;;;;;-2.72;58.62;101733.28;5071010;28;20139;-51
2023/02/07 09:42:54;;;;;;;10.23;5.05;;;;;;;-2.26;58.29;101802.72;5069576;28;20041;-51
2023/02/07 09:45:23;;;;;;;9.98;4.70;;;;;;;-2.24;57.84;101801.09;5052810;28;20041;-53
2023/02/07 09:47:53;;;;;;;11.10;4.90;;;;;;;-2.17;58.16;101795.53;5070842;28;20404;-55
2023/02/07 09:50:20;;;;;;;;;;;;;;;-1.90;57.88;101802.03;5069751;28;20186;-52
2023/02/07 09:52:55;;;;;;;7.80;4.25;;;;;;;-1.73;57.49;101793.50;5068822;28;19957;-55
2023/02/07 09:55:25;;;;;;;9.63;4.82;;;;;;;-1.53;57.18;101799.59;5072583;28;20170;-52
2023/02/07 09:57:53;;;;;;;;;;;;;;;-1.38;56.84;101796.88;5089986;28;20825;-51
2023/02/07 10:00:23;;;;;;;10.32;4.75;;;;;;;-1.31;56.71;101802.34;5070913;28;19920;-50
2023/02/07 10:02:57;;;;;;;8.48;4.90;;;;;;;-1.21;56.60;101806.22;5069058;28;20052;-50
2023/02/07 10:05:39;;;;;;;9.63;4.20;;;;;;;-1.26;56.59;101810.25;5069138;28;20060;-52
2023/02/07 10:08:12;;;;;;;7.22;4.35;;;;;;;-1.25;56.15;101814.50;5066845;28;20121;-51
2023/02/07 10:11:00;;;;;;;11.75;5.30;;;;;;;-1.38;56.00;101813.06;5090219;28;20055;-51
2023/02/07 10:13:37;;;;;;;8.73;5.22;;;;;;;-1.34;56.25;101820.06;5090342;28;20036;-54
2023/02/07 10:16:28;;;;;;;9.88;5.40;;;;;;;-1.21;56.12;101815.56;5090265;28;20048;-56
2023/02/07 10:19:03;;;;;;;9.23;5.13;;;;;;;-1.31;56.04;101820.19;5088878;28;20044;-53
2023/02/07 10:21:31;;;;;;;10.30;4.82;;;;;;;-1.42;55.98;101817.97;5088836;28;20066;-53
2023/02/07 10:24:36;;;;;;;14.63;5.85;;;;;;;-1.57;56.29;101817.22;5088593;28;20047;-54
2023/02/07 10:27:09;;;;;;;8.13;4.35;;;;;;;-1.85;56.55;101815.00;5071807;28;20064;-53
2023/02/07 10:29:35;;;;;;;9.70;5.55;;;;;;;-2.06;57.20;101809.69;5088469;28;20479;-50
2023/02/07 10:32:02;;;;;;;10.93;5.18;;;;;;;-1.91;57.30;101802.81;5089914;28;20036;-55
2023/02/07 10:34:34;;;;;;;14.70;5.30;;;;;;;-1.62;56.79;101811.03;5071183;28;20473;-48
2023/02/07 10:37:05;;;;;;;12.27;6.18;;;;;;;-1.56;56.56;101806.19;5089744;28;20499;-52
2023/02/07 10:39:38;;;;;;;9.77;4.80;;;;;;;-1.54;56.48;101787.63;5088421;28;20055;-51
2023/02/07 10:42:04;;;;;;;9.90;5.30;;;;;;;-1.53;56.60;101806.38;5088232;28;20036;-51
2023/02/07 10:44:30;;;;;;;14.77;5.40;;;;;;;-1.64;56.35;101799.88;5089813;28;20040;-53
2023/02/07 10:47:02;;;;;;;9.23;4.53;;;;;;;-1.60;56.30;101807.72;5089695;28;20067;-51
2023/02/07 10:49:31;;;;;;;9.02;4.53;;;;;;;-1.58;56.44;101808.69;5071734;28;20078;-56
2023/02/07 10:52:18;;;;;;;12.60;4.60;;;;;;;-1.44;56.13;101820.44;5051461;28;20152;-52
2023/02/07 10:54:53;;;;;;;9.63;4.78;;;;;;;-1.39;55.88;101820.66;5068011;28;20145;-53
2023/02/07 10:57:20;;;;;;;7.97;4.32;;;;;;;-1.38;55.94;101817.28;5068969;28;20093;-53
2023/02/07 10:59:47;;;;;;;8.50;4.28;;;;;;;-1.40;56.03;101817.22;5081558;28;20040;-55
2023/02/07 11:02:31;;;;;;;7.82;4.03;;;;;;;-1.73;55.97;101818.16;5089327;28;20048;-53
2023/02/07 11:05:25;;;;;;;7.80;3.83;;;;;;;-1.95;56.18;101813.66;5089171;28;20034;-52
2023/02/07 11:08:01;;;;;;;6.22;3.78;;;;;;;-1.85;55.87;101823.50;5075241;28;20135;-55
2023/02/07 11:10:37;;;;;;;10.20;4.43;;;;;;;-1.84;55.91;101809.09;5068846;28;20058;-56
2023/02/07 11:13:05;;;;;;;9.48;4.30;;;;;;;-1.75;55.77;101782.38;5067456;28;20063;-52
2023/02/07 11:15:37;;;;;;;9.93;3.88;;;;;;;-1.56;55.11;101816.41;5067507;28;20124;-55
2023/02/07 11:18:05;;;;;;;7.28;3.35;;;;;;;-1.82;55.60;101822.78;5050946;28;20080;-48
2023/02/07 11:20:35;;;;;;;7.72;4.05;;;;;;;-1.95;55.87;101826.41;5067554;28;20218;-49
2023/02/07 11:23:10;;;;;;;11.00;4.07;;;;;;;-1.84;55.73;101822.72;5050696;28;20047;-51
2023/02/07 11:25:45;;;;;;;10.60;4.03;;;;;;;-1.61;55.43;101828.06;5067283;28;20040;-53
2023/02/07 11:28:26;;;;;;;6.75;3.78;;;;;;;-1.63;55.35;101828.00;5068865;28;20098;-51
2023/02/07 11:31:18;;;;;;;7.85;4.20;;;;;;;-1.57;55.32;101824.88;5066851;28;20056;-51
2023/02/07 11:33:44;;;;;;;7.72;4.32;;;;;;;-1.40;54.99;101829.97;5063498;28;20052;-53